sensor_id;sensor_type;location;lat;lon;timestamp;P1;durP1;ratioP1;P2;durP2;ratioP2
3959;SDS011;1994;48.640;8.894;2023-08-20T00:00:59;7.80;;;7.10;;
3959;SDS011;1994;48.640;8.894;2023-08-20T00:03:31;8.00;;;7.30;;
3959;SDS011;1994;48.640;8.894;2023-08-20T00:05:57;8.57;;;6.67;;
3959;SDS011;1994;48.640;8.894;2023-08-20T00:08:23;7.07;;;6.47;;
3959;SDS011;1994;48.640;8.894;2023-08-20T00:10:49;6.87;;;6.13;;
3959;SDS011;1994;48.640;8.894;2023-08-20T00:13:14;6.77;;;6.17;;
3959;SDS011;1994;48.640;8.894;2023-08-20T00:15:40;6.80;;;6.20;;
3959;SDS011;1994;48.640;8.894;2023-08-20T00:18:06;7.03;;;6.10;;
3959;SDS011;1994;48.640;8.894;2023-08-20T00:20:33;7.33;;;5.43;;
3959;SDS011;1994;48.640;8.894;2023-08-20T00:22:59;6.67;;;6.17;;
3959;SDS011;1994;48.640;8.894;2023-08-20T00:25:25;6.33;;;5.77;;
3959;SDS011;1994;48.640;8.894;2023-08-20T00:27:51;11.30;;;5.93;;
3959;SDS011;1994;48.640;8.894;2023-08-20T00:30:16;6.43;;;5.83;;
3959;SDS011;1994;48.640;8.894;2023-08-20T00:32:42;9.50;;;6.73;;
3959;SDS011;1994;48.640;8.894;2023-08-20T00:35:08;6.40;;;5.90;;
3959;SDS011;1994;48.640;8.894;2023-08-20T00:37:34;6.33;;;5.83;;
3959;SDS011;1994;48.640;8.894;2023-08-20T00:40:00;7.23;;;6.27;;
3959;SDS011;1994;48.640;8.894;2023-08-20T00:42:29;8.43;;;6.43;;
3959;SDS011;1994;48.640;8.894;2023-08-20T00:44:55;13.63;;;7.07;;
3959;SDS011;1994;48.640;8.894;2023-08-20T00:47:21;7.00;;;5.43;;
3959;SDS011;1994;48.640;8.894;2023-08-20T00:49:47;10.50;;;6.63;;
3959;SDS011;1994;48.640;8.894;2023-08-20T00:52:13;6.20;;;5.67;;
3959;SDS011;1994;48.640;8.894;2023-08-20T00:54:41;6.47;;;5.87;;
3959;SDS011;1994;48.640;8.894;2023-08-20T00:57:15;6.90;;;6.20;;
3959;SDS011;1994;48.640;8.894;2023-08-20T00:59:44;6.20;;;5.60;;
3959;SDS011;1994;48.640;8.894;2023-08-20T01:02:13;7.50;;;6.83;;
3959;SDS011;1994;48.640;8.894;2023-08-20T01:04:39;10.60;;;6.50;;
3959;SDS011;1994;48.640;8.894;2023-08-20T01:09:43;7.47;;;6.27;;
3959;SDS011;1994;48.640;8.894;2023-08-20T01:12:43;6.53;;;5.40;;
3959;SDS011;1994;48.640;8.894;2023-08-20T01:15:10;6.50;;;5.80;;
3959;SDS011;1994;48.640;8.894;2023-08-20T01:17:41;6.03;;;5.53;;
3959;SDS011;1994;48.640;8.894;2023-08-20T01:20:11;8.00;;;5.87;;
3959;SDS011;1994;48.640;8.894;2023-08-20T01:26:07;6.03;;;5.53;;
3959;SDS011;1994;48.640;8.894;2023-08-20T01:29:13;5.90;;;5.40;;
3959;SDS011;1994;48.640;8.894;2023-08-20T01:31:39;6.17;;;5.57;;
3959;SDS011;1994;48.640;8.894;2023-08-20T01:34:05;6.23;;;5.30;;
3959;SDS011;1994;48.640;8.894;2023-08-20T01:36:31;6.83;;;6.13;;
3959;SDS011;1994;48.640;8.894;2023-08-20T01:38:57;6.33;;;5.83;;
3959;SDS011;1994;48.640;8.894;2023-08-20T01:41:23;6.67;;;6.07;;
3959;SDS011;1994;48.640;8.894;2023-08-20T01:43:48;6.00;;;5.47;;
3959;SDS011;1994;48.640;8.894;2023-08-20T01:46:14;6.23;;;5.67;;
3959;SDS011;1994;48.640;8.894;2023-08-20T01:48:40;5.77;;;5.37;;
3959;SDS011;1994;48.640;8.894;2023-08-20T01:51:06;6.40;;;5.70;;
3959;SDS011;1994;48.640;8.894;2023-08-20T01:53:31;6.80;;;6.20;;
3959;SDS011;1994;48.640;8.894;2023-08-20T01:55:57;7.00;;;6.10;;
3959;SDS011;1994;48.640;8.894;2023-08-20T01:58:23;7.53;;;6.77;;
3959;SDS011;1994;48.640;8.894;2023-08-20T02:00:50;6.13;;;5.53;;
3959;SDS011;1994;48.640;8.894;2023-08-20T02:03:16;6.27;;;5.77;;
3959;SDS011;1994;48.640;8.894;2023-08-20T02:05:42;8.20;;;5.70;;
3959;SDS011;1994;48.640;8.894;2023-08-20T02:08:08;7.63;;;6.70;;
3959;SDS011;1994;48.640;8.894;2023-08-20T02:10:33;6.50;;;6.00;;
3959;SDS011;1994;48.640;8.894;2023-08-20T02:12:59;6.40;;;5.90;;
3959;SDS011;1994;48.640;8.894;2023-08-20T02:15:25;6.23;;;5.73;;
3959;SDS011;1994;48.640;8.894;2023-08-20T02:17:51;5.57;;;5.07;;
3959;SDS011;1994;48.640;8.894;2023-08-20T02:20:17;9.67;;;6.67;;
3959;SDS011;1994;48.640;8.894;2023-08-20T02:22:43;6.70;;;5.47;;
3959;SDS011;1994;48.640;8.894;2023-08-20T02:25:09;6.70;;;6.10;;
3959;SDS011;1994;48.640;8.894;2023-08-20T02:27:34;7.07;;;6.20;;
3959;SDS011;1994;48.640;8.894;2023-08-20T02:30:00;7.00;;;5.83;;
3959;SDS011;1994;48.640;8.894;2023-08-20T02:32:26;6.27;;;5.70;;
3959;SDS011;1994;48.640;8.894;2023-08-20T02:34:52;8.87;;;6.27;;
3959;SDS011;1994;48.640;8.894;2023-08-20T02:37:18;6.37;;;5.87;;
3959;SDS011;1994;48.640;8.894;2023-08-20T02:39:44;8.40;;;6.83;;
3959;SDS011;1994;48.640;8.894;2023-08-20T02:42:10;7.37;;;6.67;;
3959;SDS011;1994;48.640;8.894;2023-08-20T02:44:35;8.20;;;6.80;;
3959;SDS011;1994;48.640;8.894;2023-08-20T02:47:02;7.97;;;7.27;;
3959;SDS011;1994;48.640;8.894;2023-08-20T02:49:27;7.20;;;6.50;;
3959;SDS011;1994;48.640;8.894;2023-08-20T02:51:53;7.00;;;5.70;;
3959;SDS011;1994;48.640;8.894;2023-08-20T02:54:19;7.80;;;7.10;;
3959;SDS011;1994;48.640;8.894;2023-08-20T02:56:45;7.97;;;6.90;;
3959;SDS011;1994;48.640;8.894;2023-08-20T02:59:10;7.43;;;6.70;;
3959;SDS011;1994;48.640;8.894;2023-08-20T03:01:36;7.93;;;7.13;;
3959;SDS011;1994;48.640;8.894;2023-08-20T03:04:02;6.90;;;6.30;;
3959;SDS011;1994;48.640;8.894;2023-08-20T03:06:29;7.20;;;6.40;;
3959;SDS011;1994;48.640;8.894;2023-08-20T03:08:56;7.60;;;6.83;;
3959;SDS011;1994;48.640;8.894;2023-08-20T03:11:21;7.80;;;7.00;;
3959;SDS011;1994;48.640;8.894;2023-08-20T03:13:47;7.17;;;6.43;;
3959;SDS011;1994;48.640;8.894;2023-08-20T03:16:14;7.20;;;6.50;;
3959;SDS011;1994;48.640;8.894;2023-08-20T03:18:39;6.70;;;6.10;;
3959;SDS011;1994;48.640;8.894;2023-08-20T03:21:05;7.60;;;6.80;;
3959;SDS011;1994;48.640;8.894;2023-08-20T03:23:31;11.37;;;6.20;;
3959;SDS011;1994;48.640;8.894;2023-08-20T03:25:57;7.80;;;7.00;;
3959;SDS011;1994;48.640;8.894;2023-08-20T03:28:24;8.17;;;7.40;;
3959;SDS011;1994;48.640;8.894;2023-08-20T03:30:50;7.43;;;6.73;;
3959;SDS011;1994;48.640;8.894;2023-08-20T03:33:15;7.17;;;6.57;;
3959;SDS011;1994;48.640;8.894;2023-08-20T03:35:42;7.87;;;7.00;;
3959;SDS011;1994;48.640;8.894;2023-08-20T03:38:08;8.00;;;7.20;;
3959;SDS011;1994;48.640;8.894;2023-08-20T03:40:33;7.47;;;6.70;;
3959;SDS011;1994;48.640;8.894;2023-08-20T03:42:59;7.27;;;6.37;;
3959;SDS011;1994;48.640;8.894;2023-08-20T03:45:25;7.83;;;6.80;;
3959;SDS011;1994;48.640;8.894;2023-08-20T03:47:53;6.80;;;6.20;;
3959;SDS011;1994;48.640;8.894;2023-08-20T03:50:18;7.70;;;7.10;;
3959;SDS011;1994;48.640;8.894;2023-08-20T03:52:44;7.40;;;6.80;;
3959;SDS011;1994;48.640;8.894;2023-08-20T03:55:10;8.93;;;7.87;;
3959;SDS011;1994;48.640;8.894;2023-08-20T03:57:36;7.83;;;6.53;;
3959;SDS011;1994;48.640;8.894;2023-08-20T04:00:02;7.37;;;6.67;;
3959;SDS011;1994;48.640;8.894;2023-08-20T04:02:29;10.53;;;8.13;;
3959;SDS011;1994;48.640;8.894;2023-08-20T04:04:57;9.97;;;9.07;;
3959;SDS011;1994;48.640;8.894;2023-08-20T04:07:23;9.30;;;7.80;;
3959;SDS011;1994;48.640;8.894;2023-08-20T04:09:48;9.87;;;7.80;;
3959;SDS011;1994;48.640;8.894;2023-08-20T04:12:14;7.00;;;6.30;;
3959;SDS011;1994;48.640;8.894;2023-08-20T04:14:40;6.60;;;5.90;;
3959;SDS011;1994;48.640;8.894;2023-08-20T04:17:06;8.17;;;7.37;;
3959;SDS011;1994;48.640;8.894;2023-08-20T04:19:31;10.20;;;6.03;;
3959;SDS011;1994;48.640;8.894;2023-08-20T04:21:57;6.70;;;6.10;;
3959;SDS011;1994;48.640;8.894;2023-08-20T04:24:23;6.80;;;6.20;;
3959;SDS011;1994;48.640;8.894;2023-08-20T04:26:48;7.60;;;6.80;;
3959;SDS011;1994;48.640;8.894;2023-08-20T04:29:14;8.13;;;7.30;;
3959;SDS011;1994;48.640;8.894;2023-08-20T04:31:40;8.30;;;7.50;;
3959;SDS011;1994;48.640;8.894;2023-08-20T04:34:05;8.57;;;7.33;;
3959;SDS011;1994;48.640;8.894;2023-08-20T04:36:31;7.40;;;6.60;;
3959;SDS011;1994;48.640;8.894;2023-08-20T04:38:57;8.33;;;7.53;;
3959;SDS011;1994;48.640;8.894;2023-08-20T04:41:23;6.83;;;6.30;;
3959;SDS011;1994;48.640;8.894;2023-08-20T04:43:48;9.60;;;7.50;;
3959;SDS011;1994;48.640;8.894;2023-08-20T04:46:14;7.77;;;7.07;;
3959;SDS011;1994;48.640;8.894;2023-08-20T04:48:40;8.20;;;7.40;;
3959;SDS011;1994;48.640;8.894;2023-08-20T04:51:06;9.10;;;8.20;;
3959;SDS011;1994;48.640;8.894;2023-08-20T04:53:32;7.70;;;6.97;;
3959;SDS011;1994;48.640;8.894;2023-08-20T04:55:58;8.60;;;7.80;;
3959;SDS011;1994;48.640;8.894;2023-08-20T04:58:24;8.30;;;7.53;;
3959;SDS011;1994;48.640;8.894;2023-08-20T05:00:50;9.93;;;9.10;;
3959;SDS011;1994;48.640;8.894;2023-08-20T05:03:16;9.40;;;7.47;;
3959;SDS011;1994;48.640;8.894;2023-08-20T05:05:41;12.73;;;7.63;;
3959;SDS011;1994;48.640;8.894;2023-08-20T05:08:07;9.03;;;7.90;;
3959;SDS011;1994;48.640;8.894;2023-08-20T05:10:35;9.33;;;8.53;;
3959;SDS011;1994;48.640;8.894;2023-08-20T05:13:02;8.90;;;7.97;;
3959;SDS011;1994;48.640;8.894;2023-08-20T05:15:28;8.37;;;7.57;;
3959;SDS011;1994;48.640;8.894;2023-08-20T05:17:54;8.20;;;7.40;;
3959;SDS011;1994;48.640;8.894;2023-08-20T05:20:20;9.70;;;8.70;;
3959;SDS011;1994;48.640;8.894;2023-08-20T05:22:46;9.53;;;8.27;;
3959;SDS011;1994;48.640;8.894;2023-08-20T05:25:11;9.37;;;8.47;;
3959;SDS011;1994;48.640;8.894;2023-08-20T05:27:37;8.57;;;7.77;;
3959;SDS011;1994;48.640;8.894;2023-08-20T05:30:03;15.20;;;7.87;;
3959;SDS011;1994;48.640;8.894;2023-08-20T05:32:29;9.23;;;8.10;;
3959;SDS011;1994;48.640;8.894;2023-08-20T05:34:55;11.17;;;8.33;;
3959;SDS011;1994;48.640;8.894;2023-08-20T05:37:21;11.03;;;8.53;;
3959;SDS011;1994;48.640;8.894;2023-08-20T05:39:47;9.57;;;7.50;;
3959;SDS011;1994;48.640;8.894;2023-08-20T05:42:13;12.20;;;9.10;;
3959;SDS011;1994;48.640;8.894;2023-08-20T05:44:38;15.93;;;8.03;;
3959;SDS011;1994;48.640;8.894;2023-08-20T05:47:04;9.30;;;7.90;;
3959;SDS011;1994;48.640;8.894;2023-08-20T05:49:30;9.60;;;8.23;;
3959;SDS011;1994;48.640;8.894;2023-08-20T05:51:56;9.73;;;8.37;;
3959;SDS011;1994;48.640;8.894;2023-08-20T05:54:22;9.33;;;8.43;;
3959;SDS011;1994;48.640;8.894;2023-08-20T05:56:47;9.73;;;8.83;;
3959;SDS011;1994;48.640;8.894;2023-08-20T05:59:13;10.07;;;7.60;;
3959;SDS011;1994;48.640;8.894;2023-08-20T06:01:39;8.97;;;8.07;;
3959;SDS011;1994;48.640;8.894;2023-08-20T06:04:05;10.03;;;8.03;;
3959;SDS011;1994;48.640;8.894;2023-08-20T06:06:30;8.40;;;7.70;;
3959;SDS011;1994;48.640;8.894;2023-08-20T06:08:56;7.90;;;7.20;;
3959;SDS011;1994;48.640;8.894;2023-08-20T06:11:22;7.73;;;6.80;;
3959;SDS011;1994;48.640;8.894;2023-08-20T06:13:48;8.40;;;7.63;;
3959;SDS011;1994;48.640;8.894;2023-08-20T06:16:16;8.87;;;8.07;;
3959;SDS011;1994;48.640;8.894;2023-08-20T06:18:42;9.93;;;7.77;;
3959;SDS011;1994;48.640;8.894;2023-08-20T06:21:07;8.37;;;6.70;;
3959;SDS011;1994;48.640;8.894;2023-08-20T06:23:33;9.50;;;8.50;;
3959;SDS011;1994;48.640;8.894;2023-08-20T06:25:59;8.30;;;7.60;;
3959;SDS011;1994;48.640;8.894;2023-08-20T06:28:25;8.67;;;7.70;;
3959;SDS011;1994;48.640;8.894;2023-08-20T06:30:51;12.77;;;7.60;;
3959;SDS011;1994;48.640;8.894;2023-08-20T06:33:16;9.03;;;7.87;;
3959;SDS011;1994;48.640;8.894;2023-08-20T06:35:42;11.10;;;7.53;;
3959;SDS011;1994;48.640;8.894;2023-08-20T06:38:08;7.90;;;7.27;;
3959;SDS011;1994;48.640;8.894;2023-08-20T06:40:33;7.60;;;7.00;;
3959;SDS011;1994;48.640;8.894;2023-08-20T06:42:59;8.50;;;7.43;;
3959;SDS011;1994;48.640;8.894;2023-08-20T06:45:25;9.00;;;6.97;;
3959;SDS011;1994;48.640;8.894;2023-08-20T06:47:51;7.83;;;7.13;;
3959;SDS011;1994;48.640;8.894;2023-08-20T06:50:16;7.83;;;7.13;;
3959;SDS011;1994;48.640;8.894;2023-08-20T06:52:42;8.27;;;7.40;;
3959;SDS011;1994;48.640;8.894;2023-08-20T06:55:08;12.03;;;7.73;;
3959;SDS011;1994;48.640;8.894;2023-08-20T06:57:34;7.77;;;6.90;;
3959;SDS011;1994;48.640;8.894;2023-08-20T07:00:00;8.50;;;7.70;;
3959;SDS011;1994;48.640;8.894;2023-08-20T07:02:26;12.40;;;7.37;;
3959;SDS011;1994;48.640;8.894;2023-08-20T07:04:51;8.40;;;6.97;;
3959;SDS011;1994;48.640;8.894;2023-08-20T07:07:17;7.97;;;7.27;;
3959;SDS011;1994;48.640;8.894;2023-08-20T07:09:43;7.77;;;7.07;;
3959;SDS011;1994;48.640;8.894;2023-08-20T07:12:09;6.93;;;6.40;;
3959;SDS011;1994;48.640;8.894;2023-08-20T07:14:34;11.30;;;7.83;;
3959;SDS011;1994;48.640;8.894;2023-08-20T07:17:00;8.23;;;7.53;;
3959;SDS011;1994;48.640;8.894;2023-08-20T07:19:27;6.93;;;6.43;;
3959;SDS011;1994;48.640;8.894;2023-08-20T07:21:54;8.00;;;7.07;;
3959;SDS011;1994;48.640;8.894;2023-08-20T07:24:20;7.90;;;7.10;;
3959;SDS011;1994;48.640;8.894;2023-08-20T07:26:50;8.87;;;7.87;;
3959;SDS011;1994;48.640;8.894;2023-08-20T07:29:24;7.87;;;7.07;;
3959;SDS011;1994;48.640;8.894;2023-08-20T07:31:51;8.73;;;7.37;;
3959;SDS011;1994;48.640;8.894;2023-08-20T07:34:17;8.57;;;7.10;;
3959;SDS011;1994;48.640;8.894;2023-08-20T07:36:43;10.00;;;6.80;;
3959;SDS011;1994;48.640;8.894;2023-08-20T07:39:09;7.70;;;7.00;;
3959;SDS011;1994;48.640;8.894;2023-08-20T07:41:35;7.57;;;6.70;;
3959;SDS011;1994;48.640;8.894;2023-08-20T07:44:01;8.20;;;7.40;;
3959;SDS011;1994;48.640;8.894;2023-08-20T07:46:26;8.30;;;7.50;;
3959;SDS011;1994;48.640;8.894;2023-08-20T07:48:52;6.97;;;6.37;;
3959;SDS011;1994;48.640;8.894;2023-08-20T07:51:18;7.57;;;6.73;;
3959;SDS011;1994;48.640;8.894;2023-08-20T07:53:44;7.33;;;6.63;;
3959;SDS011;1994;48.640;8.894;2023-08-20T07:56:09;7.43;;;6.73;;
3959;SDS011;1994;48.640;8.894;2023-08-20T07:58:35;7.07;;;6.43;;
3959;SDS011;1994;48.640;8.894;2023-08-20T08:01:01;6.73;;;6.10;;
3959;SDS011;1994;48.640;8.894;2023-08-20T08:03:27;17.63;;;7.30;;
3959;SDS011;1994;48.640;8.894;2023-08-20T08:05:53;6.97;;;6.20;;
3959;SDS011;1994;48.640;8.894;2023-08-20T08:08:20;6.00;;;5.50;;
3959;SDS011;1994;48.640;8.894;2023-08-20T08:10:47;9.13;;;6.03;;
3959;SDS011;1994;48.640;8.894;2023-08-20T08:13:17;6.23;;;5.83;;
3959;SDS011;1994;48.640;8.894;2023-08-20T08:15:45;6.83;;;5.87;;
3959;SDS011;1994;48.640;8.894;2023-08-20T08:18:11;9.13;;;6.50;;
3959;SDS011;1994;48.640;8.894;2023-08-20T08:20:37;6.50;;;5.90;;
3959;SDS011;1994;48.640;8.894;2023-08-20T08:23:03;6.83;;;6.13;;
3959;SDS011;1994;48.640;8.894;2023-08-20T08:25:29;6.43;;;5.90;;
3959;SDS011;1994;48.640;8.894;2023-08-20T08:27:55;6.53;;;6.03;;
3959;SDS011;1994;48.640;8.894;2023-08-20T08:30:21;5.80;;;5.30;;
3959;SDS011;1994;48.640;8.894;2023-08-20T08:32:47;6.03;;;5.10;;
3959;SDS011;1994;48.640;8.894;2023-08-20T08:35:13;5.93;;;5.43;;
3959;SDS011;1994;48.640;8.894;2023-08-20T08:37:38;7.57;;;6.77;;
3959;SDS011;1994;48.640;8.894;2023-08-20T08:40:04;5.30;;;4.90;;
3959;SDS011;1994;48.640;8.894;2023-08-20T08:42:32;5.47;;;4.97;;
3959;SDS011;1994;48.640;8.894;2023-08-20T08:45:01;6.17;;;5.77;;
3959;SDS011;1994;48.640;8.894;2023-08-20T08:47:28;6.50;;;5.90;;
3959;SDS011;1994;48.640;8.894;2023-08-20T08:49:55;7.17;;;5.83;;
3959;SDS011;1994;48.640;8.894;2023-08-20T08:52:24;6.07;;;5.30;;
3959;SDS011;1994;48.640;8.894;2023-08-20T08:54:51;7.57;;;5.87;;
3959;SDS011;1994;48.640;8.894;2023-08-20T08:57:18;6.33;;;5.83;;
3959;SDS011;1994;48.640;8.894;2023-08-20T08:59:44;5.47;;;5.07;;
3959;SDS011;1994;48.640;8.894;2023-08-20T09:02:10;7.25;;;5.95;;
3959;SDS011;1994;48.640;8.894;2023-08-20T09:04:41;5.03;;;4.72;;
3959;SDS011;1994;48.640;8.894;2023-08-20T09:07:13;5.45;;;5.05;;
3959;SDS011;1994;48.640;8.894;2023-08-20T09:09:44;5.83;;;5.33;;
3959;SDS011;1994;48.640;8.894;2023-08-20T09:14:50;7.60;;;5.53;;
3959;SDS011;1994;48.640;8.894;2023-08-20T09:17:17;5.68;;;5.20;;
3959;SDS011;1994;48.640;8.894;2023-08-20T09:19:45;11.02;;;5.38;;
3959;SDS011;1994;48.640;8.894;2023-08-20T09:22:12;6.07;;;5.57;;
3959;SDS011;1994;48.640;8.894;2023-08-20T09:24:39;6.10;;;5.53;;
3959;SDS011;1994;48.640;8.894;2023-08-20T09:27:07;5.43;;;5.03;;
3959;SDS011;1994;48.640;8.894;2023-08-20T09:29:55;6.40;;;5.07;;
3959;SDS011;1994;48.640;8.894;2023-08-20T09:32:23;6.32;;;5.03;;
3959;SDS011;1994;48.640;8.894;2023-08-20T09:34:51;5.50;;;5.10;;
3959;SDS011;1994;48.640;8.894;2023-08-20T09:37:20;8.05;;;5.10;;
3959;SDS011;1994;48.640;8.894;2023-08-20T09:39:49;5.60;;;5.20;;
3959;SDS011;1994;48.640;8.894;2023-08-20T09:42:15;7.75;;;5.07;;
3959;SDS011;1994;48.640;8.894;2023-08-20T09:44:42;6.60;;;6.00;;
3959;SDS011;1994;48.640;8.894;2023-08-20T09:47:13;8.10;;;4.95;;
3959;SDS011;1994;48.640;8.894;2023-08-20T09:49:42;4.90;;;4.50;;
3959;SDS011;1994;48.640;8.894;2023-08-20T09:52:10;5.43;;;5.03;;
3959;SDS011;1994;48.640;8.894;2023-08-20T09:57:25;6.75;;;5.28;;
3959;SDS011;1994;48.640;8.894;2023-08-20T09:59:57;5.28;;;4.88;;
3959;SDS011;1994;48.640;8.894;2023-08-20T10:02:24;8.75;;;5.00;;
3959;SDS011;1994;48.640;8.894;2023-08-20T10:04:51;5.57;;;5.07;;
3959;SDS011;1994;48.640;8.894;2023-08-20T10:07:18;5.57;;;4.50;;
3959;SDS011;1994;48.640;8.894;2023-08-20T10:09:44;4.13;;;3.77;;
3959;SDS011;1994;48.640;8.894;2023-08-20T10:12:12;4.63;;;4.22;;
3959;SDS011;1994;48.640;8.894;2023-08-20T10:14:39;4.85;;;4.55;;
3959;SDS011;1994;48.640;8.894;2023-08-20T10:17:07;4.95;;;4.45;;
3959;SDS011;1994;48.640;8.894;2023-08-20T10:19:35;6.03;;;5.50;;
3959;SDS011;1994;48.640;8.894;2023-08-20T10:22:03;9.65;;;4.68;;
3959;SDS011;1994;48.640;8.894;2023-08-20T10:27:34;11.37;;;4.53;;
3959;SDS011;1994;48.640;8.894;2023-08-20T10:30:02;6.70;;;4.28;;
3959;SDS011;1994;48.640;8.894;2023-08-20T10:32:47;4.97;;;4.57;;
3959;SDS011;1994;48.640;8.894;2023-08-20T10:35:15;4.35;;;4.03;;
3959;SDS011;1994;48.640;8.894;2023-08-20T10:38:00;5.17;;;4.67;;
3959;SDS011;1994;48.640;8.894;2023-08-20T10:43:31;5.47;;;4.93;;
3959;SDS011;1994;48.640;8.894;2023-08-20T10:46:13;5.22;;;4.53;;
3959;SDS011;1994;48.640;8.894;2023-08-20T10:51:26;4.72;;;4.40;;
3959;SDS011;1994;48.640;8.894;2023-08-20T10:59:26;6.85;;;4.97;;
3959;SDS011;1994;48.640;8.894;2023-08-20T11:01:58;7.72;;;4.75;;
3959;SDS011;1994;48.640;8.894;2023-08-20T11:04:25;4.93;;;4.63;;
3959;SDS011;1994;48.640;8.894;2023-08-20T11:06:55;4.45;;;4.25;;
3959;SDS011;1994;48.640;8.894;2023-08-20T11:09:22;4.90;;;4.47;;
3959;SDS011;1994;48.640;8.894;2023-08-20T11:11:51;6.70;;;4.90;;
3959;SDS011;1994;48.640;8.894;2023-08-20T11:14:17;5.43;;;5.05;;
3959;SDS011;1994;48.640;8.894;2023-08-20T11:16:45;4.75;;;4.45;;
3959;SDS011;1994;48.640;8.894;2023-08-20T11:19:14;5.97;;;4.75;;
3959;SDS011;1994;48.640;8.894;2023-08-20T11:21:43;5.72;;;4.75;;
3959;SDS011;1994;48.640;8.894;2023-08-20T11:24:09;4.70;;;4.50;;
3959;SDS011;1994;48.640;8.894;2023-08-20T11:26:36;5.65;;;5.00;;
3959;SDS011;1994;48.640;8.894;2023-08-20T11:29:06;4.72;;;4.38;;
3959;SDS011;1994;48.640;8.894;2023-08-20T11:31:33;5.55;;;4.97;;
3959;SDS011;1994;48.640;8.894;2023-08-20T11:33:59;5.07;;;4.60;;
3959;SDS011;1994;48.640;8.894;2023-08-20T11:36:28;4.55;;;4.30;;
3959;SDS011;1994;48.640;8.894;2023-08-20T11:38:54;5.10;;;4.70;;
3959;SDS011;1994;48.640;8.894;2023-08-20T11:41:23;4.72;;;4.43;;
3959;SDS011;1994;48.640;8.894;2023-08-20T11:43:55;4.80;;;4.40;;
3959;SDS011;1994;48.640;8.894;2023-08-20T11:46:21;5.70;;;4.50;;
3959;SDS011;1994;48.640;8.894;2023-08-20T11:49:05;5.15;;;4.78;;
3959;SDS011;1994;48.640;8.894;2023-08-20T11:51:35;8.25;;;4.65;;
3959;SDS011;1994;48.640;8.894;2023-08-20T11:54:16;4.60;;;4.03;;
3959;SDS011;1994;48.640;8.894;2023-08-20T11:56:43;5.90;;;5.40;;
3959;SDS011;1994;48.640;8.894;2023-08-20T11:59:17;5.30;;;4.90;;
3959;SDS011;1994;48.640;8.894;2023-08-20T12:01:51;5.30;;;4.90;;
3959;SDS011;1994;48.640;8.894;2023-08-20T12:04:23;5.32;;;4.47;;
3959;SDS011;1994;48.640;8.894;2023-08-20T12:07:01;5.47;;;4.97;;
3959;SDS011;1994;48.640;8.894;2023-08-20T12:09:38;5.13;;;4.82;;
3959;SDS011;1994;48.640;8.894;2023-08-20T12:12:05;5.60;;;5.20;;
3959;SDS011;1994;48.640;8.894;2023-08-20T12:14:32;5.53;;;4.97;;
3959;SDS011;1994;48.640;8.894;2023-08-20T12:16:58;5.07;;;4.78;;
3959;SDS011;1994;48.640;8.894;2023-08-20T12:19:24;8.65;;;4.90;;
3959;SDS011;1994;48.640;8.894;2023-08-20T12:21:50;5.70;;;5.13;;
3959;SDS011;1994;48.640;8.894;2023-08-20T12:24:16;6.05;;;5.55;;
3959;SDS011;1994;48.640;8.894;2023-08-20T12:26:44;4.80;;;4.50;;
3959;SDS011;1994;48.640;8.894;2023-08-20T12:29:10;4.93;;;4.53;;
3959;SDS011;1994;48.640;8.894;2023-08-20T12:31:35;4.65;;;4.22;;
3959;SDS011;1994;48.640;8.894;2023-08-20T12:34:01;5.30;;;4.70;;
3959;SDS011;1994;48.640;8.894;2023-08-20T12:36:28;8.38;;;4.65;;
3959;SDS011;1994;48.640;8.894;2023-08-20T12:38:54;5.38;;;5.07;;
3959;SDS011;1994;48.640;8.894;2023-08-20T12:41:20;10.02;;;4.47;;
3959;SDS011;1994;48.640;8.894;2023-08-20T12:43:46;4.75;;;4.45;;
3959;SDS011;1994;48.640;8.894;2023-08-20T12:46:12;5.13;;;4.72;;
3959;SDS011;1994;48.640;8.894;2023-08-20T12:48:38;4.78;;;4.40;;
3959;SDS011;1994;48.640;8.894;2023-08-20T12:51:05;5.38;;;4.97;;
3959;SDS011;1994;48.640;8.894;2023-08-20T12:53:31;6.38;;;4.70;;
3959;SDS011;1994;48.640;8.894;2023-08-20T12:55:57;4.85;;;4.55;;
3959;SDS011;1994;48.640;8.894;2023-08-20T12:58:23;5.38;;;4.88;;
3959;SDS011;1994;48.640;8.894;2023-08-20T13:00:49;7.55;;;4.75;;
3959;SDS011;1994;48.640;8.894;2023-08-20T13:03:16;5.95;;;5.38;;
3959;SDS011;1994;48.640;8.894;2023-08-20T13:05:43;5.95;;;4.95;;
3959;SDS011;1994;48.640;8.894;2023-08-20T13:08:10;13.90;;;4.55;;
3959;SDS011;1994;48.640;8.894;2023-08-20T13:10:38;5.30;;;4.90;;
3959;SDS011;1994;48.640;8.894;2023-08-20T13:13:13;5.82;;;4.53;;
3959;SDS011;1994;48.640;8.894;2023-08-20T13:15:45;5.70;;;5.00;;
3959;SDS011;1994;48.640;8.894;2023-08-20T13:18:12;5.32;;;4.93;;
3959;SDS011;1994;48.640;8.894;2023-08-20T13:20:38;5.13;;;4.75;;
3959;SDS011;1994;48.640;8.894;2023-08-20T13:23:05;5.15;;;4.75;;
3959;SDS011;1994;48.640;8.894;2023-08-20T13:25:31;7.40;;;4.95;;
3959;SDS011;1994;48.640;8.894;2023-08-20T13:27:56;9.90;;;4.78;;
3959;SDS011;1994;48.640;8.894;2023-08-20T13:30:22;6.00;;;4.82;;
3959;SDS011;1994;48.640;8.894;2023-08-20T13:32:54;4.90;;;4.60;;
3959;SDS011;1994;48.640;8.894;2023-08-20T13:35:19;7.57;;;4.35;;
3959;SDS011;1994;48.640;8.894;2023-08-20T13:37:45;5.63;;;4.68;;
3959;SDS011;1994;48.640;8.894;2023-08-20T13:40:14;6.57;;;5.00;;
3959;SDS011;1994;48.640;8.894;2023-08-20T13:42:39;6.72;;;4.68;;
3959;SDS011;1994;48.640;8.894;2023-08-20T13:45:05;4.88;;;4.47;;
3959;SDS011;1994;48.640;8.894;2023-08-20T13:47:32;5.65;;;5.00;;
3959;SDS011;1994;48.640;8.894;2023-08-20T13:49:58;7.65;;;5.45;;
3959;SDS011;1994;48.640;8.894;2023-08-20T13:52:23;4.95;;;4.50;;
3959;SDS011;1994;48.640;8.894;2023-08-20T13:54:49;5.07;;;4.68;;
3959;SDS011;1994;48.640;8.894;2023-08-20T13:57:15;5.10;;;4.70;;
3959;SDS011;1994;48.640;8.894;2023-08-20T13:59:41;6.82;;;6.32;;
3959;SDS011;1994;48.640;8.894;2023-08-20T14:02:07;9.80;;;4.78;;
3959;SDS011;1994;48.640;8.894;2023-08-20T14:04:32;8.27;;;5.57;;
3959;SDS011;1994;48.640;8.894;2023-08-20T14:07:01;4.90;;;4.55;;
3959;SDS011;1994;48.640;8.894;2023-08-20T14:09:30;5.40;;;4.72;;
3959;SDS011;1994;48.640;8.894;2023-08-20T14:11:56;9.20;;;5.28;;
3959;SDS011;1994;48.640;8.894;2023-08-20T14:14:22;4.95;;;4.55;;
3959;SDS011;1994;48.640;8.894;2023-08-20T14:16:48;5.88;;;5.38;;
3959;SDS011;1994;48.640;8.894;2023-08-20T14:19:13;7.85;;;7.35;;
3959;SDS011;1994;48.640;8.894;2023-08-20T14:21:39;5.60;;;5.20;;
3959;SDS011;1994;48.640;8.894;2023-08-20T14:24:05;5.43;;;5.03;;
3959;SDS011;1994;48.640;8.894;2023-08-20T14:26:31;7.25;;;4.82;;
3959;SDS011;1994;48.640;8.894;2023-08-20T14:28:57;12.77;;;11.55;;
3959;SDS011;1994;48.640;8.894;2023-08-20T14:31:23;8.80;;;7.47;;
3959;SDS011;1994;48.640;8.894;2023-08-20T14:33:49;5.80;;;5.30;;
3959;SDS011;1994;48.640;8.894;2023-08-20T14:36:14;6.57;;;5.90;;
3959;SDS011;1994;48.640;8.894;2023-08-20T14:38:40;5.72;;;5.22;;
3959;SDS011;1994;48.640;8.894;2023-08-20T14:41:07;8.65;;;4.82;;
3959;SDS011;1994;48.640;8.894;2023-08-20T14:43:32;5.10;;;4.63;;
3959;SDS011;1994;48.640;8.894;2023-08-20T14:45:58;4.55;;;4.30;;
3959;SDS011;1994;48.640;8.894;2023-08-20T14:48:24;8.90;;;5.13;;
3959;SDS011;1994;48.640;8.894;2023-08-20T14:50:50;5.22;;;4.82;;
3959;SDS011;1994;48.640;8.894;2023-08-20T14:53:16;4.80;;;4.40;;
3959;SDS011;1994;48.640;8.894;2023-08-20T14:55:43;6.65;;;4.55;;
3959;SDS011;1994;48.640;8.894;2023-08-20T14:58:10;8.38;;;4.68;;
3959;SDS011;1994;48.640;8.894;2023-08-20T15:00:36;5.18;;;4.78;;
3959;SDS011;1994;48.640;8.894;2023-08-20T15:03:02;6.03;;;4.93;;
3959;SDS011;1994;48.640;8.894;2023-08-20T15:05:29;5.80;;;5.40;;
3959;SDS011;1994;48.640;8.894;2023-08-20T15:07:55;6.25;;;5.00;;
3959;SDS011;1994;48.640;8.894;2023-08-20T15:10:21;6.65;;;4.80;;
3959;SDS011;1994;48.640;8.894;2023-08-20T15:12:47;4.82;;;4.43;;
3959;SDS011;1994;48.640;8.894;2023-08-20T15:15:13;4.85;;;4.40;;
3959;SDS011;1994;48.640;8.894;2023-08-20T15:17:39;4.88;;;4.47;;
3959;SDS011;1994;48.640;8.894;2023-08-20T15:20:05;9.02;;;5.60;;
3959;SDS011;1994;48.640;8.894;2023-08-20T15:22:35;4.43;;;4.13;;
3959;SDS011;1994;48.640;8.894;2023-08-20T15:25:02;4.97;;;4.67;;
3959;SDS011;1994;48.640;8.894;2023-08-20T15:27:30;5.22;;;4.75;;
3959;SDS011;1994;48.640;8.894;2023-08-20T15:29:56;8.80;;;5.32;;
3959;SDS011;1994;48.640;8.894;2023-08-20T15:32:21;7.53;;;4.50;;
3959;SDS011;1994;48.640;8.894;2023-08-20T15:34:49;5.18;;;4.65;;
3959;SDS011;1994;48.640;8.894;2023-08-20T15:37:15;6.55;;;4.75;;
3959;SDS011;1994;48.640;8.894;2023-08-20T15:39:41;4.73;;;4.40;;